Station: Coober Pedy Airport

  Atmospheric Gas Attenuation - ITU Rec 676-11   --------------- db/100km ---------------
Date Time Temp RH % AH g/m3 Dew Point Wind Direction Speed kph Gust kph Barometer mB Rainfall Since 9am 24GHz 47GHz 76GHz 122GHz 134GHz 241GHz
17 07:00 7 74 5.74 2.7 13 15 1027.5 0 13.8 23.7 32.0 83.4 69.1 234.7
17 06:50 7.1 73 5.7 2.6 13 13 1027.5 0 13.7 23.6 31.9 82.9 68.5 232.6
17 06:40 7.5 72 5.77 2.8 15 17 1027.4 0 13.8 23.6 32.0 83.2 69.1 234.6
17 06:30 7.9 71 5.83 3 15 17 1027.3 0 13.9 23.6 32.0 83.4 69.5 236.1
17 06:20 7.9 71 5.83 3 15 17 1027.2 0 13.9 23.6 32.0 83.4 69.5 236.1
17 06:10 7.5 74 5.93 3.2 15 15 1027.1 0 14.1 23.9 32.6 84.9 71.1 241.9
17 06:00 7.3 72 5.69 2.6 15 19 1027 0 13.6 23.5 31.7 82.6 68.2 231.4
17 05:50 7.6 72 5.8 2.9 19 19 1026.8 0 13.9 23.6 32.0 83.4 69.3 235.5
17 05:40 7.6 72 5.8 2.9 19 19 1026.8 0 13.9 23.6 32.0 83.4 69.3 235.5
17 05:20 7.6 71 5.72 2.7 17 19 1026.7 0 13.7 23.5 31.7 82.5 68.3 231.9
17 04:50 7.8 70 5.72 2.7 17 19 1026.6 0 13.7 23.4 31.6 82.3 68.1 231.3
17 04:40 7.7 71 5.76 2.8 17 19 1026.6 0 13.8 23.5 31.8 82.8 68.7 233.4
17 04:30 7.3 71 5.61 2.4 15 17 1026.6 0 13.5 23.4 31.4 81.7 67.1 227.7
17 04:20 7.4 71 5.65 2.5 15 15 1026.5 0 13.5 23.4 31.5 82.0 67.5 229.2
17 04:10 7.6 70 5.64 2.5 15 17 1026.5 0 13.5 23.4 31.4 81.7 67.2 228.2
17 04:00 7.8 70 5.72 2.7 17 20 1026.5 0 13.7 23.4 31.6 82.3 68.1 231.3
17 03:50 7.9 70 5.75 2.8 17 19 1026.5 0 13.7 23.4 31.7 82.5 68.4 232.3
17 03:40 7.9 70 5.75 2.8 17 17 1026.6 0 13.7 23.5 31.7 82.5 68.4 232.3
17 03:30 8 69 5.71 2.7 17 17 1026.7 0 13.7 23.4 31.5 82.0 67.8 230.3
17 03:20 8.2 69 5.78 2.9 17 19 1026.6 0 13.8 23.4 31.7 82.5 68.5 232.8
17 03:10 8.2 69 5.78 2.9 17 17 1026.7 0 13.8 23.4 31.7 82.5 68.5 232.8
17 03:00 8.3 68 5.73 2.8 15 17 1026.7 0 13.7 23.3 31.5 81.9 67.8 230.3
17 02:50 8.6 68 5.85 3 17 17 1026.7 0 13.9 23.4 31.8 82.9 69.1 234.8
17 02:40 8.8 66 5.75 2.8 17 17 1026.8 0 13.7 23.2 31.4 81.6 67.6 229.8
17 02:30 8.9 66 5.78 2.9 17 20 1026.8 0 13.8 23.2 31.4 81.8 67.9 230.8
17 02:20 8.8 66 5.75 2.8 17 20 1026.7 0 13.7 23.2 31.3 81.6 67.6 229.8
17 02:10 8.8 65 5.66 2.6 17 19 1026.8 0 13.5 23.1 31.0 80.7 66.5 225.7
17 02:00 8.9 65 5.7 2.7 17 19 1026.9 0 13.6 23.1 31.1 81.0 66.9 227.3
17 01:50 9 64 5.64 2.6 17 19 1026.8 0 13.5 23.0 30.9 80.3 66.1 224.3
17 01:40 9.2 63 5.63 2.5 17 19 1026.9 0 13.4 22.9 30.7 80.0 65.8 223.3
17 01:30 9.4 63 5.7 2.7 17 20 1026.9 0 13.6 23.0 30.9 80.5 66.5 225.9
17 01:20 9.6 62 5.68 2.7 17 19 1026.7 0 13.5 22.9 30.8 80.1 66.1 224.4
17 01:10 9.8 61 5.66 2.6 17 19 1026.8 0 13.5 22.8 30.6 79.7 65.6 222.9
17 01:00 9.7 63 5.81 3 17 20 1026.8 0 13.8 23.1 31.2 81.3 67.6 229.9
17 00:50 9.9 62 5.79 3 17 19 1026.7 0 13.8 23.0 31.1 80.9 67.2 228.4
17 00:40 10.1 62 5.86 3.2 17 19 1026.9 0 13.9 23.1 31.3 81.4 67.9 230.9
17 00:30 10 62 5.83 3.1 17 19 1026.9 0 13.8 23.1 31.2 81.2 67.6 229.9
17 00:20 9.9 62 5.79 3 15 17 1027 0 13.8 23.0 31.1 80.9 67.2 228.4
17 00:10 9.9 63 5.88 3.2 17 19 1027 0 13.9 23.2 31.4 81.8 68.3 232.4
17 00:00 9.4 64 5.79 2.9 17 17 1027 0 13.8 23.1 31.3 81.4 67.6 229.9
16 23:50 9.3 64 5.75 2.9 15 15 1027.1 0 13.7 23.1 31.2 81.1 67.2 228.4
16 23:40 9.8 62 5.75 2.9 15 15 1027.2 0 13.7 23.0 31.0 80.6 66.8 227.0
16 23:30 10.3 61 5.84 3.1 15 17 1027.3 0 13.8 23.0 31.1 81.1 67.5 229.6
16 23:20 10.3 61 5.84 3.1 15 15 1027.4 0 13.8 23.0 31.1 81.1 67.5 229.6
16 23:10 10.4 61 5.88 3.2 15 15 1027.4 0 13.9 23.0 31.3 81.4 67.9 231.1
16 23:00 10.1 61 5.77 2.9 13 15 1027.4 0 13.7 23.0 31.0 80.6 66.8 227.1
16 22:50 10.3 60 5.75 2.9 15 15 1027.4 0 13.7 22.9 30.8 80.1 66.4 225.6
16 22:40 10.5 60 5.82 3.1 15 15 1027.4 0 13.8 22.9 31.0 80.7 67.1 228.1
16 22:30 10.6 59 5.76 2.9 15 17 1027.4 0 13.7 22.8 30.7 79.9 66.3 225.2
16 22:20 10.7 59 5.8 3 15 17 1027.5 0 13.7 22.8 30.8 80.3 66.7 226.7
16 22:10 10.9 59 5.87 3.2 13 13 1027.5 0 13.9 22.9 31.0 80.8 67.4 229.2
16 22:00 10.6 60 5.86 3.2 13 15 1027.4 0 13.9 23.0 31.1 81.0 67.5 229.6
16 21:50 10.7 59 5.8 3 13 13 1027.4 0 13.7 22.8 30.8 80.3 66.7 226.7
16 21:40 10.9 58 5.77 3 13 13 1027.3 0 13.7 22.7 30.6 79.7 66.1 224.8
16 21:30 11.2 58 5.88 3.3 15 15 1027.3 0 13.9 22.8 30.9 80.5 67.2 228.7
16 21:20 11.3 57 5.82 3.1 13 15 1027.2 0 13.8 22.7 30.7 79.8 66.4 225.8
16 21:10 11.5 57 5.89 3.3 15 17 1027.2 0 13.9 22.8 30.9 80.3 67.1 228.3
16 21:00 11.7 57 5.96 3.5 15 15 1027.2 0 14.0 22.8 31.0 80.8 67.8 230.8
16 20:50 11.7 56 5.86 3.2 13 15 1027.2 0 13.8 22.7 30.7 79.8 66.6 226.4
16 20:40 11.8 56 5.89 3.3 13 13 1027.1 0 13.9 22.7 30.7 80.0 66.8 227.4
16 20:30 12.2 55 5.94 3.4 13 13 1027.1 0 14.0 22.7 30.8 80.1 67.1 228.5
16 20:20 12.3 54 5.86 3.3 11 13 1027.1 0 13.8 22.5 30.4 79.2 66.1 224.7
16 20:10 12.2 54 5.83 3.2 11 11 1027 0 13.8 22.5 30.4 79.0 65.8 223.7
16 20:00 12.7 54 6.01 3.6 11 15 1027 0 14.1 22.7 30.8 80.3 67.6 230.0
16 19:50 13 53 6.01 3.7 13 15 1026.9 0 14.1 22.6 30.7 80.0 67.3 229.2
16 19:40 13.3 52 6.01 3.7 13 15 1026.7 0 14.1 22.5 30.6 79.7 67.0 228.3
16 19:30 13.6 50 5.88 3.4 11 13 1026.6 0 13.8 22.2 30.0 78.1 65.2 221.9
16 19:20 13.5 50 5.85 3.3 11 11 1026.6 0 13.8 22.2 29.9 77.9 64.9 220.9
16 19:10 13.7 50 5.92 3.5 11 11 1026.6 0 13.9 22.3 30.1 78.4 65.6 223.3
16 19:00 13.9 49 5.87 3.4 11 13 1026.4 0 13.8 22.1 29.9 77.7 64.8 220.6
16 18:50 14.2 47 5.74 3.1 11 13 1026.3 0 13.5 21.9 29.3 76.2 63.0 214.4
16 18:40 14.7 47 5.92 3.5 11 13 1026.2 0 13.9 22.0 29.7 77.4 64.8 220.5
16 18:30 14.9 45 5.74 3.1 11 13 1026.1 0 13.5 21.7 29.0 75.5 62.5 212.5
16 18:20 15.3 44 5.75 3.1 11 13 1026 0 13.5 21.6 28.9 75.2 62.3 211.8
16 18:10 15.7 43 5.75 3.2 11 11 1025.8 0 13.5 21.5 28.8 74.8 62.0 210.8
16 18:00 16.1 42 5.76 3.2 11 13 1025.6 0 13.5 21.4 28.7 74.5 61.7 210.1
16 17:50 16.6 41 5.79 3.3 11 13 1025.5 0 13.5 21.3 28.6 74.4 61.7 210.0
16 17:40 17.1 40 5.82 3.4 13 15 1025.4 0 13.6 21.3 28.5 74.2 61.7 209.9
16 17:30 17.5 39 5.81 3.4 13 17 1025.2 0 13.5 21.2 28.3 73.7 61.2 208.5
16 17:20 17.7 38 5.73 3.2 13 15 1025.3 0 13.4 21.0 28.0 72.8 60.2 204.8
16 17:10 18 37 5.68 3.1 15 17 1025.2 0 13.2 20.9 27.7 72.1 59.4 202.0
16 17:00 18.2 38 5.91 3.7 13 20 1025.1 0 13.7 21.1 28.4 74.0 61.8 210.7
16 16:50 18 38 5.84 3.5 7 9 1025.1 0 13.6 21.1 28.3 73.5 61.2 208.4
16 16:40 18.2 38 5.91 3.7 15 19 1025.1 0 13.7 21.1 28.4 74.0 61.8 210.7
16 16:30 18.4 37 5.82 3.5 15 22 1025 0 13.5 21.0 28.1 73.0 60.7 206.6
16 16:20 18.4 37 5.82 3.5 15 19 1025.1 0 13.5 21.0 28.1 73.0 60.7 206.6
16 16:10 18.7 36 5.76 3.3 11 13 1025.1 0 13.4 20.8 27.8 72.2 59.8 203.5
16 16:00 18.5 38 6.01 3.9 11 20 1025 0 13.9 21.2 28.7 74.6 62.7 213.8
16 15:50 18.9 37 5.99 3.9 11 17 1025.1 0 13.9 21.1 28.5 74.1 62.2 212.0
16 15:40 18.6 38 6.05 4 13 15 1025.1 0 14.0 21.2 28.8 74.9 63.1 215.2
16 15:30 18.5 37 5.85 3.6 17 22 1025.1 0 13.6 21.0 28.1 73.2 60.9 207.5
16 15:20 18.5 38 6.01 3.9 11 13 1025.2 0 13.9 21.2 28.7 74.6 62.7 213.9
16 15:10 18.5 39 6.17 4.3 15 17 1025.2 0 14.2 21.4 29.2 76.1 64.6 220.3
16 15:00 18.5 39 6.17 4.3 13 22 1025.2 0 14.2 21.4 29.2 76.1 64.6 220.3
16 14:50 18.7 39 6.24 4.5 13 17 1025.4 0 14.4 21.5 29.4 76.6 65.2 222.6
16 14:40 18.3 38 5.94 3.8 15 17 1025.4 0 13.8 21.2 28.5 74.2 62.1 211.7
16 14:30 18.5 38 6.01 3.9 17 24 1025.4 0 13.9 21.2 28.7 74.7 62.8 213.9
16 14:20 18 39 5.99 3.9 15 19 1025.5 0 13.9 21.3 28.8 74.9 62.9 214.4
16 14:10 18.2 40 6.22 4.4 15 20 1025.6 0 14.4 21.6 29.5 76.9 65.4 223.2
16 14:00 18 40 6.14 4.2 13 24 1025.6 0 14.2 21.5 29.3 76.3 64.6 220.5

Last Refresh: 17-May-2021 07:09:28

Bureau of Meteorology